createdAt,value
2023-05-10T00:02:05.738Z,17.60
2023-05-10T00:04:32.591Z,17.68
2023-05-10T00:06:59.399Z,17.58
2023-05-10T00:09:26.267Z,17.34
2023-05-10T00:11:53.143Z,17.36
2023-05-10T00:14:20.206Z,17.57
2023-05-10T00:16:47.285Z,17.52
2023-05-10T00:19:14.197Z,17.47
2023-05-10T00:21:41.135Z,17.53
2023-05-10T00:24:08.133Z,17.77
2023-05-10T00:26:35.009Z,17.79
2023-05-10T00:29:01.836Z,18.15
2023-05-10T00:31:28.609Z,17.45
2023-05-10T00:33:56.766Z,17.59
2023-05-10T00:36:23.644Z,17.47
2023-05-10T00:38:50.420Z,17.72
2023-05-10T00:41:17.622Z,17.57
2023-05-10T00:43:44.505Z,17.36
2023-05-10T00:46:11.857Z,17.46
2023-05-10T00:48:39.085Z,17.61
2023-05-10T00:51:06.021Z,17.72
2023-05-10T00:53:33.832Z,17.74
2023-05-10T00:56:00.967Z,17.79
2023-05-10T00:58:29.268Z,17.72
2023-05-10T01:00:59.467Z,17.80
2023-05-10T01:03:27.232Z,17.83
2023-05-10T01:05:54.288Z,17.77
2023-05-10T01:08:21.362Z,17.74
2023-05-10T01:10:50.127Z,17.82
2023-05-10T01:13:45.442Z,17.88
2023-05-10T01:16:12.736Z,17.68
2023-05-10T01:18:42.618Z,17.74
2023-05-10T01:21:12.418Z,17.61
2023-05-10T01:24:05.221Z,17.71
2023-05-10T01:27:19.541Z,17.68
2023-05-10T01:30:24.621Z,17.67
2023-05-10T01:33:01.727Z,17.75
2023-05-10T01:35:43.709Z,17.75
2023-05-10T01:38:34.135Z,17.81
2023-05-10T01:41:19.677Z,17.73
2023-05-10T01:44:35.826Z,17.67
2023-05-10T01:47:12.178Z,17.53
2023-05-10T01:50:03.140Z,17.61
2023-05-10T01:52:44.778Z,17.58
2023-05-10T01:55:17.562Z,17.43
2023-05-10T01:57:47.510Z,17.54
2023-05-10T02:00:17.400Z,17.47
2023-05-10T02:02:50.190Z,17.53
2023-05-10T02:05:18.468Z,17.42
2023-05-10T02:07:46.127Z,17.52
2023-05-10T02:10:14.530Z,17.57
2023-05-10T02:12:48.672Z,17.63
2023-05-10T02:15:23.348Z,17.46
2023-05-10T02:17:50.817Z,17.61
2023-05-10T02:20:19.654Z,17.62
2023-05-10T02:22:50.352Z,17.62
2023-05-10T02:25:21.042Z,17.67
2023-05-10T02:27:49.431Z,17.63
2023-05-10T02:30:18.068Z,17.66
2023-05-10T02:32:46.094Z,17.59
2023-05-10T02:35:13.873Z,17.51
2023-05-10T02:37:41.557Z,17.57
2023-05-10T02:40:10.278Z,17.57
2023-05-10T02:42:39.868Z,17.00
2023-05-10T02:45:13.017Z,17.13
2023-05-10T02:47:40.372Z,17.08
2023-05-10T02:50:08.149Z,17.34
2023-05-10T02:52:49.263Z,17.11
2023-05-10T02:55:17.841Z,17.29
2023-05-10T02:57:52.291Z,17.34
2023-05-10T03:00:19.471Z,17.43
2023-05-10T03:02:46.329Z,17.33
2023-05-10T03:05:13.203Z,17.27
2023-05-10T03:07:40.179Z,17.40
2023-05-10T03:10:07.911Z,17.34
2023-05-10T03:13:16.164Z,17.05
2023-05-10T03:16:10.103Z,17.27
2023-05-10T03:19:03.264Z,17.34
2023-05-10T03:21:31.667Z,17.27
2023-05-10T03:24:07.254Z,17.38
2023-05-10T03:26:34.602Z,17.22
2023-05-10T03:29:02.122Z,17.25
2023-05-10T03:31:28.981Z,17.34
2023-05-10T03:33:55.867Z,17.05
2023-05-10T03:36:22.721Z,17.05
2023-05-10T03:38:49.582Z,17.19
2023-05-10T03:41:16.547Z,17.28
2023-05-10T03:43:43.421Z,17.24
2023-05-10T03:46:10.562Z,17.28
2023-05-10T03:48:37.464Z,17.30
2023-05-10T03:51:04.537Z,17.27
2023-05-10T03:53:31.355Z,17.07
2023-05-10T03:55:58.168Z,17.23
2023-05-10T03:58:25.005Z,17.30
2023-05-10T04:00:52.960Z,17.28
2023-05-10T04:03:19.912Z,17.39
2023-05-10T04:05:46.764Z,17.21
2023-05-10T04:08:13.697Z,17.25
2023-05-10T04:10:40.699Z,17.26
2023-05-10T04:13:07.599Z,17.25
2023-05-10T04:15:34.749Z,17.34
2023-05-10T04:18:01.893Z,17.42
2023-05-10T04:20:28.956Z,17.24
2023-05-10T04:22:55.982Z,17.23
2023-05-10T04:25:22.778Z,17.21
2023-05-10T04:27:49.604Z,17.35
2023-05-10T04:30:16.563Z,17.09
2023-05-10T04:32:43.638Z,17.35
2023-05-10T04:35:11.636Z,17.53
2023-05-10T04:37:38.547Z,17.46
2023-05-10T04:40:07.105Z,17.43
2023-05-10T04:42:34.111Z,17.42
2023-05-10T04:45:00.919Z,17.42
2023-05-10T04:47:27.810Z,17.42
2023-05-10T04:49:54.684Z,17.46
2023-05-10T04:52:21.712Z,17.59
2023-05-10T04:54:48.567Z,17.28
2023-05-10T04:57:15.590Z,17.20
2023-05-10T04:59:43.458Z,17.41
2023-05-10T05:02:10.339Z,17.34
2023-05-10T05:04:37.222Z,17.46
2023-05-10T05:07:04.043Z,17.41
2023-05-10T05:09:32.937Z,17.45
2023-05-10T05:12:00.357Z,17.44
2023-05-10T05:14:27.371Z,17.70
2023-05-10T05:16:54.633Z,17.76
2023-05-10T05:19:21.681Z,17.69
2023-05-10T05:21:48.515Z,17.67
2023-05-10T05:24:15.350Z,17.70
2023-05-10T05:26:42.465Z,17.73
2023-05-10T05:29:09.359Z,17.78
2023-05-10T05:31:36.261Z,17.72
2023-05-10T05:34:03.203Z,17.86
2023-05-10T05:36:30.002Z,17.81
2023-05-10T05:38:56.807Z,17.75
2023-05-10T05:41:24.988Z,17.73
2023-05-10T05:43:51.789Z,17.79
2023-05-10T05:46:18.695Z,17.87
2023-05-10T05:48:45.515Z,17.99
2023-05-10T05:51:12.440Z,18.11
2023-05-10T05:53:39.265Z,18.05
2023-05-10T05:56:06.275Z,18.12
2023-05-10T05:58:33.115Z,18.08
2023-05-10T06:00:59.993Z,17.96
2023-05-10T06:03:26.973Z,18.11
2023-05-10T06:05:53.884Z,17.99
2023-05-10T06:08:21.297Z,18.09
2023-05-10T06:10:48.150Z,17.84
2023-05-10T06:13:16.592Z,18.06
2023-05-10T06:15:43.515Z,18.00
2023-05-10T06:18:10.486Z,18.05
2023-05-10T06:20:37.327Z,18.19
2023-05-10T06:23:04.199Z,18.19
2023-05-10T06:25:30.988Z,18.21
2023-05-10T06:27:58.926Z,18.29
2023-05-10T06:30:29.799Z,18.32
2023-05-10T06:32:57.622Z,18.13
2023-05-10T06:35:24.581Z,18.12
2023-05-10T06:37:52.386Z,18.22
2023-05-10T06:40:19.482Z,18.36
2023-05-10T06:42:47.333Z,18.42
2023-05-10T06:45:15.734Z,18.57
2023-05-10T06:47:43.259Z,18.72
2023-05-10T06:50:12.554Z,18.53
2023-05-10T06:52:40.110Z,18.89
2023-05-10T06:55:07.706Z,18.73
2023-05-10T06:57:34.624Z,18.75
2023-05-10T07:00:02.019Z,18.96
2023-05-10T07:02:29.494Z,19.08
2023-05-10T07:04:56.450Z,19.00
2023-05-10T07:07:23.306Z,19.09
2023-05-10T07:09:50.972Z,19.03
2023-05-10T07:12:18.028Z,18.94
2023-05-10T07:14:45.000Z,19.32
2023-05-10T07:17:11.864Z,18.81
2023-05-10T07:19:38.743Z,19.25
2023-05-10T07:22:05.601Z,19.23
2023-05-10T07:24:34.053Z,19.16
2023-05-10T07:27:00.935Z,19.11
2023-05-10T07:29:27.828Z,19.34
2023-05-10T07:31:56.498Z,19.28
2023-05-10T07:34:26.015Z,19.52
2023-05-10T07:36:53.288Z,19.61
2023-05-10T07:39:27.270Z,19.87
2023-05-10T07:41:56.028Z,19.78
2023-05-10T07:44:23.112Z,20.18
2023-05-10T07:46:50.046Z,20.24
2023-05-10T07:49:17.209Z,20.41
2023-05-10T07:51:44.303Z,20.63
2023-05-10T07:54:11.238Z,20.50
2023-05-10T07:56:38.132Z,20.74
2023-05-10T07:59:07.352Z,20.55
2023-05-10T08:01:35.559Z,20.74
2023-05-10T08:04:03.133Z,21.40
2023-05-10T08:06:30.956Z,21.82
2023-05-10T08:08:58.250Z,22.32
2023-05-10T08:11:25.626Z,22.51
2023-05-10T08:13:52.812Z,22.26
2023-05-10T08:16:20.338Z,21.55
2023-05-10T08:18:48.198Z,21.70
2023-05-10T08:21:16.413Z,22.14
2023-05-10T08:23:44.753Z,22.61
2023-05-10T08:26:12.045Z,22.60
2023-05-10T08:28:38.982Z,22.38
2023-05-10T08:31:06.795Z,21.96
2023-05-10T08:33:34.083Z,21.99
2023-05-10T08:36:00.976Z,21.99
2023-05-10T08:38:28.031Z,21.85
2023-05-10T08:40:59.818Z,21.26
2023-05-10T08:43:31.210Z,21.00
2023-05-10T08:46:03.913Z,20.71
2023-05-10T08:48:32.049Z,20.33
2023-05-10T08:51:02.972Z,20.08
2023-05-10T08:53:32.071Z,19.95
2023-05-10T08:55:59.138Z,19.81
2023-05-10T08:58:26.493Z,19.80
2023-05-10T09:00:53.864Z,20.05
2023-05-10T09:03:20.874Z,20.39
2023-05-10T09:05:49.453Z,20.46
2023-05-10T09:08:17.506Z,20.12
2023-05-10T09:10:49.303Z,20.27
2023-05-10T09:13:16.725Z,20.34
2023-05-10T09:15:45.379Z,20.54
2023-05-10T09:18:12.872Z,20.92
2023-05-10T09:20:39.918Z,21.02
2023-05-10T09:23:06.868Z,20.68
2023-05-10T09:25:38.138Z,20.68
2023-05-10T09:28:09.274Z,21.38
2023-05-10T09:30:36.813Z,22.32
2023-05-10T09:33:04.437Z,22.40
2023-05-10T09:35:33.773Z,22.47
2023-05-10T09:38:05.837Z,21.66
2023-05-10T09:40:33.529Z,21.34
2023-05-10T09:43:09.888Z,21.16
2023-05-10T09:45:38.969Z,20.69
2023-05-10T09:48:06.965Z,20.67
2023-05-10T09:50:35.102Z,20.55
2023-05-10T09:53:04.947Z,20.72
2023-05-10T09:55:47.402Z,20.45
2023-05-10T09:58:15.268Z,20.62
2023-05-10T10:00:45.702Z,21.19
2023-05-10T10:03:17.936Z,20.84
2023-05-10T10:05:46.220Z,21.14
2023-05-10T10:08:14.355Z,21.04
2023-05-10T10:10:42.324Z,20.47
2023-05-10T10:13:09.563Z,20.88
2023-05-10T10:15:36.674Z,20.99
2023-05-10T10:18:07.415Z,21.12
2023-05-10T10:20:34.776Z,20.97
2023-05-10T10:23:01.879Z,20.58
2023-05-10T10:25:29.222Z,20.83
2023-05-10T10:28:26.192Z,21.21
2023-05-10T10:30:57.034Z,20.69
2023-05-10T10:34:02.818Z,20.35
2023-05-10T10:36:31.317Z,20.31
2023-05-10T10:39:01.249Z,20.85
2023-05-10T10:41:37.097Z,20.38
2023-05-10T10:44:23.215Z,20.72
2023-05-10T10:47:25.449Z,20.78
2023-05-10T10:50:05.484Z,21.02
2023-05-10T10:52:37.464Z,20.68
2023-05-10T10:55:18.055Z,20.74
2023-05-10T10:57:48.009Z,20.83
2023-05-10T11:00:37.921Z,21.31
2023-05-10T11:03:10.082Z,21.71
2023-05-10T11:05:48.128Z,21.65
2023-05-10T11:08:32.129Z,22.28
2023-05-10T11:11:03.034Z,22.76
2023-05-10T11:13:32.692Z,23.15
2023-05-10T11:16:14.298Z,23.36
2023-05-10T11:18:41.588Z,22.94
2023-05-10T11:21:11.652Z,23.41
2023-05-10T11:23:44.298Z,23.57
2023-05-10T11:26:11.916Z,23.13
2023-05-10T11:28:49.684Z,22.16
2023-05-10T11:31:21.250Z,21.56
2023-05-10T11:33:54.660Z,21.73
2023-05-10T11:36:35.575Z,21.72
2023-05-10T11:39:03.832Z,21.23
2023-05-10T11:41:32.101Z,21.01
2023-05-10T11:43:59.906Z,20.70
2023-05-10T11:46:29.174Z,20.14
2023-05-10T11:49:02.624Z,20.18
2023-05-10T11:51:29.512Z,20.15
2023-05-10T11:53:58.123Z,19.87
2023-05-10T11:56:27.021Z,19.90
2023-05-10T11:58:57.287Z,20.07
2023-05-10T12:01:25.796Z,20.12
2023-05-10T12:03:55.206Z,20.09
2023-05-10T12:06:22.770Z,19.71
2023-05-10T12:08:54.559Z,19.56
2023-05-10T12:11:25.784Z,19.60
2023-05-10T12:13:52.714Z,19.89
2023-05-10T12:16:29.989Z,20.26
2023-05-10T12:19:01.622Z,20.51
2023-05-10T12:21:31.761Z,20.61
2023-05-10T12:24:04.612Z,20.64
2023-05-10T12:26:31.872Z,20.76
2023-05-10T12:29:19.217Z,20.54
2023-05-10T12:31:55.495Z,20.19
2023-05-10T12:34:36.223Z,20.77
2023-05-10T12:37:04.569Z,20.72
2023-05-10T12:39:45.142Z,20.87
2023-05-10T12:42:12.406Z,21.01
2023-05-10T12:44:40.648Z,21.30
2023-05-10T12:47:07.856Z,20.17
2023-05-10T12:49:35.082Z,20.41
2023-05-10T12:52:02.236Z,19.44
2023-05-10T12:54:29.143Z,20.05
2023-05-10T12:56:56.006Z,19.78
2023-05-10T12:59:23.873Z,19.89
2023-05-10T13:01:50.756Z,19.72
2023-05-10T13:04:17.627Z,19.91
2023-05-10T13:06:44.515Z,19.98
2023-05-10T13:09:11.507Z,19.99
2023-05-10T13:11:38.452Z,20.02
2023-05-10T13:14:05.371Z,20.08
2023-05-10T13:16:32.726Z,19.83
2023-05-10T13:18:59.789Z,19.75
2023-05-10T13:21:26.791Z,19.79
2023-05-10T13:23:54.384Z,19.72
2023-05-10T13:26:21.242Z,19.07
2023-05-10T13:28:49.769Z,19.42
2023-05-10T13:31:16.824Z,19.50
2023-05-10T13:33:43.717Z,19.41
2023-05-10T13:36:10.523Z,19.29
2023-05-10T13:38:37.437Z,19.41
2023-05-10T13:41:04.476Z,19.26
2023-05-10T13:43:31.309Z,19.60
2023-05-10T13:45:58.269Z,19.02
2023-05-10T13:48:25.203Z,19.55
2023-05-10T13:50:52.062Z,19.28
2023-05-10T13:53:18.935Z,19.70
2023-05-10T13:55:45.729Z,19.04
2023-05-10T13:58:12.592Z,19.16
2023-05-10T14:00:39.460Z,19.56
2023-05-10T14:03:07.382Z,19.36
2023-05-10T14:05:34.322Z,19.05
2023-05-10T14:08:01.165Z,18.61
2023-05-10T14:10:28.047Z,19.28
2023-05-10T14:12:54.864Z,19.57
2023-05-10T14:15:21.843Z,19.66
2023-05-10T14:17:48.948Z,19.55
2023-05-10T14:20:15.984Z,19.84
2023-05-10T14:22:42.835Z,20.25
2023-05-10T14:25:10.293Z,20.30
2023-05-10T14:27:37.502Z,20.48
2023-05-10T14:30:04.816Z,19.99
2023-05-10T14:32:33.022Z,20.24
2023-05-10T14:35:00.500Z,20.51
2023-05-10T14:37:27.756Z,20.66
2023-05-10T14:39:54.953Z,20.96
2023-05-10T14:42:22.310Z,19.81
2023-05-10T14:44:49.191Z,19.85
2023-05-10T14:47:16.065Z,19.40
2023-05-10T14:49:42.943Z,19.08
2023-05-10T14:52:09.817Z,19.58
2023-05-10T14:54:36.698Z,18.87
2023-05-10T14:57:03.590Z,19.28
2023-05-10T14:59:30.403Z,19.79
2023-05-10T15:01:57.591Z,19.91
2023-05-10T15:04:25.997Z,19.92
2023-05-10T15:06:59.990Z,19.54
2023-05-10T15:09:28.423Z,19.97
2023-05-10T15:11:56.096Z,19.34
2023-05-10T15:14:24.208Z,19.38
2023-05-10T15:16:51.144Z,18.75
2023-05-10T15:19:18.004Z,19.10
2023-05-10T15:21:45.609Z,19.21
2023-05-10T15:24:12.496Z,19.40
2023-05-10T15:26:39.459Z,19.48
2023-05-10T15:29:06.307Z,19.37
2023-05-10T15:31:36.052Z,18.75
2023-05-10T15:34:03.017Z,18.80
2023-05-10T15:36:29.867Z,18.75
2023-05-10T15:38:56.869Z,18.66
2023-05-10T15:41:24.505Z,18.88
2023-05-10T15:43:51.418Z,18.38
2023-05-10T15:46:18.295Z,17.83
2023-05-10T15:48:45.200Z,18.21
2023-05-10T15:51:12.379Z,17.65
2023-05-10T15:53:46.573Z,17.24
2023-05-10T15:56:19.874Z,17.71
2023-05-10T15:58:46.789Z,17.76
2023-05-10T16:01:13.728Z,17.80
2023-05-10T16:03:40.644Z,17.82
2023-05-10T16:06:07.989Z,17.93
2023-05-10T16:08:35.417Z,17.83
2023-05-10T16:11:03.775Z,17.87
2023-05-10T16:13:30.691Z,17.74
2023-05-10T16:15:58.190Z,17.62
2023-05-10T16:18:25.300Z,17.60
2023-05-10T16:20:53.781Z,17.50
2023-05-10T16:23:20.848Z,17.01
2023-05-10T16:25:47.726Z,16.82
2023-05-10T16:28:14.541Z,16.93
2023-05-10T16:30:41.463Z,16.79
2023-05-10T16:33:08.403Z,16.81
2023-05-10T16:35:35.351Z,16.54
2023-05-10T16:38:02.219Z,16.49
2023-05-10T16:40:29.095Z,16.77
2023-05-10T16:42:56.083Z,16.71
2023-05-10T16:45:23.068Z,16.87
2023-05-10T16:47:49.977Z,16.74
2023-05-10T16:50:17.558Z,16.59
2023-05-10T16:52:44.509Z,16.57
2023-05-10T16:55:11.417Z,16.49
2023-05-10T16:57:38.210Z,16.59
2023-05-10T17:00:06.259Z,16.55
2023-05-10T17:02:33.210Z,16.44
2023-05-10T17:05:00.174Z,16.38
2023-05-10T17:07:29.320Z,16.46
2023-05-10T17:09:56.622Z,16.41
2023-05-10T17:12:23.850Z,16.45
2023-05-10T17:14:50.800Z,16.43
2023-05-10T17:17:17.658Z,16.35
2023-05-10T17:19:47.570Z,16.39
2023-05-10T17:22:14.358Z,16.45
2023-05-10T17:24:41.167Z,16.46
2023-05-10T17:27:08.295Z,16.14
2023-05-10T17:29:35.129Z,16.30
2023-05-10T17:32:02.100Z,16.24
2023-05-10T17:34:29.099Z,16.35
2023-05-10T17:36:55.906Z,16.14
2023-05-10T17:39:25.875Z,16.20
2023-05-10T17:41:52.727Z,15.98
2023-05-10T17:44:19.815Z,16.09
2023-05-10T17:46:46.762Z,16.17
2023-05-10T17:49:13.586Z,16.08
2023-05-10T17:51:43.868Z,16.21
2023-05-10T17:54:10.659Z,16.13
2023-05-10T17:56:37.648Z,15.98
2023-05-10T17:59:05.791Z,16.06
2023-05-10T18:01:32.819Z,16.02
2023-05-10T18:03:59.663Z,16.02
2023-05-10T18:06:26.791Z,15.93
2023-05-10T18:08:53.575Z,15.93
2023-05-10T18:11:20.397Z,15.90
2023-05-10T18:13:47.236Z,15.75
2023-05-10T18:16:14.265Z,15.76
2023-05-10T18:18:41.112Z,15.76
2023-05-10T18:21:08.036Z,15.84
2023-05-10T18:23:34.888Z,15.84
2023-05-10T18:26:02.431Z,15.79
2023-05-10T18:28:29.274Z,15.73
2023-05-10T18:30:56.199Z,15.41
2023-05-10T18:33:23.062Z,15.49
2023-05-10T18:35:56.035Z,15.32
2023-05-10T18:38:22.984Z,15.29
2023-05-10T18:40:49.783Z,15.13
2023-05-10T18:43:16.753Z,15.30
2023-05-10T18:45:43.902Z,15.38
2023-05-10T18:48:10.980Z,15.47
2023-05-10T18:50:37.922Z,15.58
2023-05-10T18:53:05.031Z,15.54
2023-05-10T18:55:32.066Z,15.47
2023-05-10T18:57:58.916Z,15.40
2023-05-10T19:00:28.346Z,14.26
2023-05-10T19:02:55.691Z,15.05
2023-05-10T19:05:28.289Z,15.04
2023-05-10T19:07:55.208Z,15.05
2023-05-10T19:10:22.362Z,15.19
2023-05-10T19:12:49.184Z,15.18
2023-05-10T19:15:19.205Z,15.20
2023-05-10T19:17:47.898Z,15.01
2023-05-10T19:20:15.799Z,14.99
2023-05-10T19:22:58.138Z,15.04
2023-05-10T19:25:29.791Z,14.97
2023-05-10T19:27:59.789Z,14.96
2023-05-10T19:30:26.964Z,14.76
2023-05-10T19:32:55.745Z,14.68
2023-05-10T19:35:24.070Z,14.78
2023-05-10T19:37:54.759Z,14.87
2023-05-10T19:40:22.745Z,14.61
2023-05-10T19:42:49.603Z,14.85
2023-05-10T19:45:21.902Z,14.70
2023-05-10T19:47:49.073Z,14.69
2023-05-10T19:50:16.842Z,14.78
2023-05-10T19:52:44.849Z,14.75
2023-05-10T19:55:15.560Z,14.90
2023-05-10T19:57:42.699Z,15.00
2023-05-10T20:00:10.615Z,15.00
2023-05-10T20:02:40.631Z,15.00
2023-05-10T20:05:08.117Z,15.00
2023-05-10T20:07:35.031Z,14.96
2023-05-10T20:10:02.789Z,14.97
2023-05-10T20:12:32.733Z,15.02
2023-05-10T20:14:59.653Z,15.07
2023-05-10T20:17:26.480Z,15.12
2023-05-10T20:19:53.331Z,14.83
2023-05-10T20:22:20.498Z,14.66
2023-05-10T20:24:48.163Z,14.84
2023-05-10T20:27:15.150Z,14.77
2023-05-10T20:29:45.622Z,14.51
2023-05-10T20:32:12.427Z,14.76
2023-05-10T20:34:39.463Z,14.74
2023-05-10T20:37:06.567Z,14.50
2023-05-10T20:39:33.701Z,14.48
2023-05-10T20:42:00.626Z,14.61
2023-05-10T20:44:27.596Z,14.22
2023-05-10T20:46:54.787Z,14.56
2023-05-10T20:49:21.861Z,14.63
2023-05-10T20:51:48.766Z,14.70
2023-05-10T20:54:15.686Z,14.69
2023-05-10T20:56:42.518Z,14.72
2023-05-10T20:59:09.353Z,14.64
2023-05-10T21:01:36.272Z,14.53
2023-05-10T21:04:03.695Z,14.64
2023-05-10T21:06:31.934Z,14.55
2023-05-10T21:08:58.796Z,14.56
2023-05-10T21:11:25.702Z,14.63
2023-05-10T21:13:52.652Z,14.51
2023-05-10T21:16:20.371Z,14.64
2023-05-10T21:18:47.288Z,14.67
2023-05-10T21:21:14.259Z,14.64
2023-05-10T21:23:41.144Z,14.58
2023-05-10T21:26:07.963Z,14.56
2023-05-10T21:28:34.772Z,14.57
2023-05-10T21:31:01.701Z,14.67
2023-05-10T21:33:29.036Z,14.59
2023-05-10T21:35:56.667Z,14.69
2023-05-10T21:38:23.584Z,14.64
2023-05-10T21:40:50.454Z,14.24
2023-05-10T21:43:17.312Z,14.23
2023-05-10T21:45:44.141Z,14.50
2023-05-10T21:48:11.035Z,14.57
2023-05-10T21:50:37.936Z,14.66
2023-05-10T21:53:04.935Z,14.70
2023-05-10T21:55:31.971Z,14.61
2023-05-10T21:57:58.842Z,14.55
2023-05-10T22:00:26.460Z,14.61
2023-05-10T22:02:53.452Z,14.59
2023-05-10T22:05:21.113Z,14.57
2023-05-10T22:07:47.914Z,13.93
2023-05-10T22:10:14.779Z,14.26
2023-05-10T22:12:41.645Z,14.42
2023-05-10T22:15:10.677Z,14.47
2023-05-10T22:17:39.792Z,14.53
2023-05-10T22:20:08.437Z,14.24
2023-05-10T22:22:36.470Z,14.46
2023-05-10T22:25:04.770Z,14.52
2023-05-10T22:27:31.572Z,14.47
2023-05-10T22:29:58.386Z,14.54
2023-05-10T22:32:25.619Z,14.58
2023-05-10T22:34:52.682Z,14.19
2023-05-10T22:37:19.476Z,14.48
2023-05-10T22:39:46.766Z,14.46
2023-05-10T22:42:13.555Z,14.55
2023-05-10T22:44:40.449Z,14.31
2023-05-10T22:47:08.901Z,14.22
2023-05-10T22:49:35.863Z,14.01
2023-05-10T22:52:02.771Z,14.08
2023-05-10T22:54:29.645Z,14.19
2023-05-10T22:56:57.012Z,13.98
2023-05-10T22:59:24.039Z,14.35
2023-05-10T23:01:51.011Z,14.28
2023-05-10T23:04:17.953Z,14.39
2023-05-10T23:06:45.889Z,14.37
2023-05-10T23:09:12.761Z,14.00
2023-05-10T23:11:39.592Z,14.05
2023-05-10T23:14:06.660Z,14.14
2023-05-10T23:16:33.532Z,14.23
2023-05-10T23:19:00.489Z,14.31
2023-05-10T23:21:28.766Z,14.27
2023-05-10T23:23:57.003Z,14.18
2023-05-10T23:26:23.934Z,14.15
2023-05-10T23:28:50.865Z,13.56
2023-05-10T23:31:17.659Z,14.00
2023-05-10T23:33:44.493Z,14.09
2023-05-10T23:36:11.296Z,14.18
2023-05-10T23:38:39.298Z,14.06
2023-05-10T23:41:06.267Z,14.20
2023-05-10T23:43:33.132Z,14.26
2023-05-10T23:45:59.981Z,13.94
2023-05-10T23:48:26.889Z,14.23
2023-05-10T23:50:53.708Z,13.93
2023-05-10T23:53:20.642Z,13.64
2023-05-10T23:55:47.469Z,13.92
2023-05-10T23:58:14.334Z,13.80
